createdAt,value
2019-05-07T00:00:43.648Z,34.80
2019-05-07T00:01:42.338Z,38.50
2019-05-07T00:02:42.832Z,35.40
2019-05-07T00:03:42.194Z,37.50
2019-05-07T00:04:42.831Z,37.20
2019-05-07T00:05:42.760Z,34.10
2019-05-07T00:06:43.277Z,34.50
2019-05-07T00:07:42.489Z,35.30
2019-05-07T00:08:44.587Z,32.90
2019-05-07T00:09:43.033Z,34.90
2019-05-07T00:10:42.492Z,33.90
2019-05-07T00:11:42.587Z,35.40
2019-05-07T00:12:42.997Z,38.10
2019-05-07T00:13:44.110Z,38.00
2019-05-07T00:14:42.930Z,30.90
2019-05-07T00:15:42.092Z,32.80
2019-05-07T00:16:42.179Z,31.60
2019-05-07T00:17:42.835Z,29.90
2019-05-07T00:18:42.930Z,34.40
2019-05-07T00:19:42.992Z,30.80
2019-05-07T00:20:42.328Z,33.10
2019-05-07T00:21:42.343Z,33.90
2019-05-07T00:22:41.965Z,34.40
2019-05-07T00:23:43.007Z,31.80
2019-05-07T00:24:42.675Z,31.20
2019-05-07T00:25:42.193Z,34.90
2019-05-07T00:26:43.066Z,26.80
2019-05-07T00:27:42.704Z,30.80
2019-05-07T00:28:42.983Z,28.80
2019-05-07T00:29:42.946Z,31.40
2019-05-07T00:30:42.530Z,28.30
2019-05-07T00:31:41.944Z,29.50
2019-05-07T00:32:42.377Z,29.30
2019-05-07T00:33:43.023Z,27.20
2019-05-07T00:34:42.498Z,24.40
2019-05-07T00:35:42.793Z,27.50
2019-05-07T00:36:42.091Z,31.70
2019-05-07T00:37:42.995Z,31.70
2019-05-07T00:39:42.404Z,29.40
2019-05-07T00:40:42.545Z,29.70
2019-05-07T00:41:42.716Z,30.40
2019-05-07T00:42:42.121Z,31.50
2019-05-07T00:43:42.771Z,29.80
2019-05-07T00:44:42.237Z,31.40
2019-05-07T00:45:42.111Z,34.70
2019-05-07T00:46:42.626Z,30.20
2019-05-07T00:47:42.592Z,27.80
2019-05-07T00:48:42.248Z,31.30
2019-05-07T00:49:42.538Z,31.30
2019-05-07T00:50:42.049Z,29.50
2019-05-07T00:51:42.456Z,28.50
2019-05-07T00:52:42.893Z,30.50
2019-05-07T00:53:42.384Z,32.80
2019-05-07T00:54:42.264Z,31.00
2019-05-07T00:55:42.315Z,35.10
2019-05-07T00:56:42.719Z,31.80
2019-05-07T00:57:42.747Z,29.60
2019-05-07T00:58:42.738Z,33.70
2019-05-07T00:59:42.808Z,36.30
2019-05-07T01:00:42.055Z,32.40
2019-05-07T01:01:40.489Z,31.90
2019-05-07T01:02:42.943Z,35.00
2019-05-07T01:03:42.378Z,32.40
2019-05-07T01:04:42.252Z,29.40
2019-05-07T01:05:40.410Z,33.10
2019-05-07T01:06:42.431Z,30.20
2019-05-07T01:07:41.981Z,32.70
2019-05-07T01:08:40.415Z,34.10
2019-05-07T01:09:40.367Z,33.10
2019-05-07T01:10:41.960Z,35.50
2019-05-07T01:11:42.721Z,38.00
2019-05-07T01:12:42.283Z,36.70
2019-05-07T01:13:40.326Z,37.70
2019-05-07T01:14:42.017Z,35.90
2019-05-07T01:15:42.792Z,36.40
2019-05-07T01:16:42.102Z,35.30
2019-05-07T01:17:42.408Z,36.60
2019-05-07T01:18:42.068Z,37.40
2019-05-07T01:19:42.259Z,35.40
2019-05-07T01:20:42.251Z,34.20
2019-05-07T01:21:40.242Z,36.80
2019-05-07T01:22:42.388Z,35.30
2019-05-07T01:23:42.593Z,41.60
2019-05-07T01:24:40.324Z,40.40
2019-05-07T01:25:40.203Z,34.40
2019-05-07T01:26:42.391Z,39.50
2019-05-07T01:27:42.523Z,37.90
2019-05-07T01:28:42.139Z,34.30
2019-05-07T01:29:40.159Z,34.50
2019-05-07T01:30:40.268Z,35.60
2019-05-07T01:31:40.135Z,38.20
2019-05-07T01:32:42.428Z,37.60
2019-05-07T01:33:42.244Z,37.70
2019-05-07T01:34:40.187Z,36.60
2019-05-07T01:35:42.249Z,34.10
2019-05-07T01:36:40.219Z,37.60
2019-05-07T01:37:42.128Z,36.60
2019-05-07T01:38:40.161Z,40.90
2019-05-07T01:39:42.066Z,39.10
2019-05-07T01:40:40.136Z,38.50
2019-05-07T01:41:41.999Z,39.30
2019-05-07T01:42:42.184Z,44.90
2019-05-07T01:43:40.040Z,37.80
2019-05-07T01:44:42.024Z,40.80
2019-05-07T01:45:46.402Z,40.60
2019-05-07T01:46:42.196Z,43.00
2019-05-07T01:47:42.333Z,43.00
2019-05-07T01:48:39.972Z,44.70
2019-05-07T01:49:42.006Z,43.60
2019-05-07T01:50:39.938Z,43.60
2019-05-07T01:51:42.121Z,44.00
2019-05-07T01:52:39.901Z,41.20
2019-05-07T01:53:40.043Z,43.00
2019-05-07T01:54:39.882Z,39.60
2019-05-07T01:55:39.930Z,42.80
2019-05-07T01:56:39.860Z,40.30
2019-05-07T01:57:41.995Z,39.10
2019-05-07T01:58:39.877Z,45.20
2019-05-07T01:59:39.982Z,44.20
2019-05-07T02:00:39.818Z,41.80
2019-05-07T02:01:39.868Z,41.30
2019-05-07T02:02:39.796Z,41.90
2019-05-07T02:03:41.933Z,43.10
2019-05-07T02:04:39.818Z,44.10
2019-05-07T02:05:42.301Z,42.20
2019-05-07T02:06:39.761Z,44.80
2019-05-07T02:07:39.804Z,44.60
2019-05-07T02:08:42.104Z,44.80
2019-05-07T02:09:39.841Z,48.70
2019-05-07T02:10:39.733Z,47.20
2019-05-07T02:11:42.126Z,44.30
2019-05-07T02:12:39.699Z,44.20
2019-05-07T02:13:41.893Z,46.50
2019-05-07T02:14:39.727Z,43.30
2019-05-07T02:15:39.757Z,45.30
2019-05-07T02:16:41.749Z,43.10
2019-05-07T02:17:39.767Z,44.10
2019-05-07T02:18:42.259Z,42.90
2019-05-07T02:19:39.726Z,43.20
2019-05-07T02:20:39.651Z,45.70
2019-05-07T02:21:39.714Z,45.00
2019-05-07T02:22:39.585Z,42.80
2019-05-07T02:23:39.612Z,46.30
2019-05-07T02:24:39.569Z,42.60
2019-05-07T02:25:41.847Z,41.40
2019-05-07T02:26:39.540Z,42.90
2019-05-07T02:27:41.890Z,40.90
2019-05-07T02:28:39.526Z,42.20
2019-05-07T02:29:39.553Z,47.10
2019-05-07T02:30:39.536Z,45.40
2019-05-07T02:32:43.281Z,41.90
2019-05-07T02:33:39.595Z,47.70
2019-05-07T02:34:39.460Z,43.30
2019-05-07T02:35:39.516Z,45.40
2019-05-07T02:36:39.487Z,44.00
2019-05-07T02:37:48.627Z,42.20
2019-05-07T02:38:43.897Z,43.10
2019-05-07T02:39:39.547Z,48.30
2019-05-07T02:40:39.415Z,41.70
2019-05-07T02:41:39.432Z,44.00
2019-05-07T02:42:39.390Z,46.40
2019-05-07T02:43:39.450Z,44.90
2019-05-07T02:44:39.345Z,44.40
2019-05-07T02:45:39.501Z,49.10
2019-05-07T02:46:39.323Z,50.60
2019-05-07T02:47:39.365Z,44.30
2019-05-07T02:48:39.320Z,52.20
2019-05-07T02:49:39.396Z,41.60
2019-05-07T02:50:39.326Z,49.10
2019-05-07T02:51:43.204Z,43.30
2019-05-07T02:52:39.265Z,45.20
2019-05-07T02:53:39.325Z,41.00
2019-05-07T02:54:39.258Z,42.30
2019-05-07T02:55:39.325Z,47.70
2019-05-07T02:56:39.259Z,45.80
2019-05-07T02:57:39.331Z,45.30
2019-05-07T02:58:39.208Z,46.40
2019-05-07T02:59:39.250Z,45.60
2019-05-07T03:00:39.191Z,46.50
2019-05-07T03:01:39.297Z,42.60
2019-05-07T03:02:39.161Z,44.30
2019-05-07T03:03:39.175Z,46.70
2019-05-07T03:04:39.131Z,47.20
2019-05-07T03:05:39.204Z,45.30
2019-05-07T03:06:39.140Z,44.90
2019-05-07T03:07:39.196Z,51.20
2019-05-07T03:08:39.102Z,42.40
2019-05-07T03:09:39.210Z,44.60
2019-05-07T03:10:39.074Z,50.70
2019-05-07T03:11:39.157Z,50.40
2019-05-07T03:12:39.049Z,50.00
2019-05-07T03:13:39.141Z,46.50
2019-05-07T03:14:39.022Z,45.70
2019-05-07T03:15:39.046Z,47.20
2019-05-07T03:16:44.236Z,46.90
2019-05-07T03:17:42.675Z,44.90
2019-05-07T03:18:39.073Z,46.60
2019-05-07T03:19:38.971Z,46.20
2019-05-07T03:20:39.087Z,46.80
2019-05-07T03:21:38.975Z,47.90
2019-05-07T03:22:38.998Z,51.30
2019-05-07T03:23:38.940Z,53.50
2019-05-07T03:24:39.011Z,48.10
2019-05-07T03:25:38.910Z,43.00
2019-05-07T03:26:38.968Z,44.00
2019-05-07T03:27:38.893Z,42.80
2019-05-07T03:28:38.937Z,44.80
2019-05-07T03:29:38.889Z,48.40
2019-05-07T03:30:38.956Z,42.70
2019-05-07T03:31:38.845Z,44.80
2019-05-07T03:32:40.393Z,45.60
2019-05-07T03:33:38.847Z,43.90
2019-05-07T03:34:38.936Z,44.30
2019-05-07T03:35:38.822Z,47.30
2019-05-07T03:36:38.910Z,45.90
2019-05-07T03:37:38.816Z,47.70
2019-05-07T03:38:38.796Z,51.90
2019-05-07T03:39:38.761Z,43.30
2019-05-07T03:40:38.814Z,43.10
2019-05-07T03:41:38.749Z,51.40
2019-05-07T03:42:38.855Z,47.00
2019-05-07T03:43:38.716Z,50.80
2019-05-07T03:44:38.736Z,47.10
2019-05-07T03:45:38.789Z,44.30
2019-05-07T03:46:53.093Z,47.20
2019-05-07T03:47:39.715Z,50.10
2019-05-07T03:48:38.767Z,47.40
2019-05-07T03:49:38.654Z,53.00
2019-05-07T03:50:38.701Z,45.40
2019-05-07T03:51:38.633Z,44.70
2019-05-07T03:52:38.725Z,47.20
2019-05-07T03:53:38.626Z,48.50
2019-05-07T03:54:38.760Z,50.00
2019-05-07T03:55:38.592Z,47.40
2019-05-07T03:57:39.717Z,47.80
2019-05-07T03:58:38.659Z,49.40
2019-05-07T03:59:38.557Z,48.60
2019-05-07T04:00:38.661Z,44.10
2019-05-07T04:01:38.535Z,46.70
2019-05-07T04:02:38.602Z,43.30
2019-05-07T04:03:38.500Z,45.50
2019-05-07T04:04:38.582Z,48.90
2019-05-07T04:05:38.495Z,48.20
2019-05-07T04:06:38.582Z,45.90
2019-05-07T04:07:38.468Z,44.90
2019-05-07T04:08:38.539Z,42.30
2019-05-07T04:09:38.450Z,45.40
2019-05-07T04:10:38.534Z,44.90
2019-05-07T04:11:38.420Z,47.20
2019-05-07T04:12:38.537Z,47.80
2019-05-07T04:13:38.431Z,46.40
2019-05-07T04:14:38.446Z,53.70
2019-05-07T04:15:38.369Z,43.10
2019-05-07T04:16:38.466Z,51.00
2019-05-07T04:17:38.362Z,49.40
2019-05-07T04:18:38.491Z,50.40
2019-05-07T04:19:38.329Z,46.40
2019-05-07T04:20:38.381Z,46.20
2019-05-07T04:21:38.302Z,47.20
2019-05-07T04:22:38.394Z,48.00
2019-05-07T04:23:38.316Z,50.40
2019-05-07T04:24:38.324Z,51.70
2019-05-07T04:25:38.268Z,45.90
2019-05-07T04:26:38.324Z,47.00
2019-05-07T04:27:38.269Z,41.00
2019-05-07T04:28:38.356Z,40.40
2019-05-07T04:29:38.226Z,44.20
2019-05-07T04:30:38.242Z,45.40
2019-05-07T04:31:38.202Z,46.30
2019-05-07T04:32:38.259Z,45.70
2019-05-07T04:33:38.221Z,47.60
2019-05-07T04:34:38.308Z,44.40
2019-05-07T04:35:38.158Z,46.10
2019-05-07T04:36:38.183Z,38.30
2019-05-07T04:37:38.132Z,49.30
2019-05-07T04:38:38.205Z,42.00
2019-05-07T04:39:38.153Z,41.80
2019-05-07T04:40:38.219Z,42.80
2019-05-07T04:41:38.093Z,39.90
2019-05-07T04:42:38.175Z,41.10
2019-05-07T04:43:38.078Z,38.40
2019-05-07T04:44:38.169Z,43.70
2019-05-07T04:45:38.041Z,43.20
2019-05-07T04:46:38.150Z,44.60
2019-05-07T04:47:42.986Z,41.30
2019-05-07T04:48:39.042Z,45.90
2019-05-07T04:49:38.107Z,42.20
2019-05-07T04:50:43.589Z,43.00
2019-05-07T04:51:38.981Z,35.70
2019-05-07T04:52:38.094Z,38.20
2019-05-07T04:53:37.974Z,39.60
2019-05-07T04:54:38.054Z,37.20
2019-05-07T04:55:37.957Z,38.40
2019-05-07T04:56:38.033Z,35.40
2019-05-07T04:57:37.931Z,35.10
2019-05-07T04:58:38.033Z,37.90
2019-05-07T04:59:37.950Z,36.90
2019-05-07T05:00:37.960Z,39.30
2019-05-07T05:01:37.897Z,37.20
2019-05-07T05:02:37.962Z,42.40
2019-05-07T05:03:39.264Z,37.70
2019-05-07T05:04:37.904Z,35.80
2019-05-07T05:05:37.865Z,36.50
2019-05-07T05:06:37.892Z,38.90
2019-05-07T05:07:37.818Z,37.80
2019-05-07T05:08:37.897Z,37.30
2019-05-07T05:09:37.792Z,39.30
2019-05-07T05:10:37.856Z,37.30
2019-05-07T05:11:37.783Z,39.20
2019-05-07T05:12:37.825Z,35.40
2019-05-07T05:13:37.766Z,33.50
2019-05-07T05:14:37.837Z,36.70
2019-05-07T05:15:37.749Z,35.50
2019-05-07T05:16:37.745Z,35.10
2019-05-07T05:17:49.659Z,36.40
2019-05-07T05:18:38.703Z,38.80
2019-05-07T05:19:37.766Z,34.50
2019-05-07T05:20:37.697Z,33.30
2019-05-07T05:21:37.790Z,35.30
2019-05-07T05:22:37.661Z,34.50
2019-05-07T05:23:37.687Z,35.90
2019-05-07T05:24:37.632Z,34.80
2019-05-07T05:25:37.741Z,34.00
2019-05-07T05:26:37.609Z,34.20
2019-05-07T05:27:37.720Z,32.80
2019-05-07T05:28:37.593Z,32.00
2019-05-07T05:29:37.627Z,29.70
2019-05-07T05:30:37.585Z,29.40
2019-05-07T05:31:37.647Z,29.20
2019-05-07T05:32:37.541Z,27.20
2019-05-07T05:33:37.658Z,29.40
2019-05-07T05:34:37.513Z,26.40
2019-05-07T05:35:37.610Z,26.20
2019-05-07T05:36:37.496Z,27.40
2019-05-07T05:38:38.623Z,27.60
2019-05-07T05:39:37.501Z,26.80
2019-05-07T05:40:37.500Z,30.80
2019-05-07T05:41:37.985Z,30.50
2019-05-07T05:42:37.434Z,27.60
2019-05-07T05:43:37.520Z,28.40
2019-05-07T05:44:37.418Z,29.50
2019-05-07T05:45:37.441Z,29.40
2019-05-07T05:46:37.411Z,28.70
2019-05-07T05:47:37.464Z,28.10
2019-05-07T05:48:37.368Z,27.80
2019-05-07T05:49:37.458Z,28.50
2019-05-07T05:50:37.348Z,30.00
2019-05-07T05:51:37.399Z,28.40
2019-05-07T05:52:37.326Z,27.80
2019-05-07T05:54:38.424Z,29.90
2019-05-07T05:55:37.408Z,25.70
2019-05-07T05:56:37.311Z,24.00
2019-05-07T05:57:37.313Z,27.30
2019-05-07T05:58:37.271Z,26.80
2019-05-07T05:59:48.932Z,26.70
2019-05-07T06:00:38.228Z,26.80
2019-05-07T06:01:37.391Z,26.80
2019-05-07T06:02:37.209Z,26.40
2019-05-07T06:03:37.203Z,23.50
2019-05-07T06:04:37.197Z,25.80
2019-05-07T06:06:38.314Z,23.90
2019-05-07T06:07:37.295Z,25.70
2019-05-07T06:08:37.154Z,23.70
2019-05-07T06:09:37.191Z,25.60
2019-05-07T06:10:37.118Z,24.20
2019-05-07T06:11:37.235Z,26.70
2019-05-07T06:12:37.099Z,22.80
2019-05-07T06:13:37.135Z,23.60
2019-05-07T06:14:37.078Z,25.80
2019-05-07T06:15:37.139Z,22.60
2019-05-07T06:16:37.077Z,23.10
2019-05-07T06:17:37.149Z,23.10
2019-05-07T06:18:37.032Z,20.90
2019-05-07T06:19:37.056Z,25.70
2019-05-07T06:20:37.012Z,24.90
2019-05-07T06:21:37.098Z,23.20
2019-05-07T06:22:36.988Z,22.70
2019-05-07T06:23:37.102Z,24.00
2019-05-07T06:24:36.969Z,24.90
2019-05-07T06:25:36.997Z,23.30
2019-05-07T06:26:36.946Z,26.20
2019-05-07T06:27:37.042Z,25.80
2019-05-07T06:28:36.925Z,22.80
2019-05-07T06:29:37.026Z,25.30
2019-05-07T06:30:36.906Z,25.80
2019-05-07T06:31:36.937Z,26.30
2019-05-07T06:32:36.910Z,21.60
2019-05-07T06:33:36.949Z,22.00
2019-05-07T06:34:36.862Z,26.10
2019-05-07T06:35:36.963Z,25.90
2019-05-07T06:36:36.850Z,23.40
2019-05-07T06:37:37.933Z,25.70
2019-05-07T06:38:36.832Z,27.70
2019-05-07T06:39:36.887Z,25.50
2019-05-07T06:40:36.791Z,26.00
2019-05-07T06:41:36.909Z,28.00
2019-05-07T06:42:36.804Z,25.60
2019-05-07T06:44:37.898Z,23.90
2019-05-07T06:45:36.825Z,23.60
2019-05-07T06:46:38.730Z,23.60
2019-05-07T06:47:36.783Z,21.90
2019-05-07T06:48:42.299Z,23.00
2019-05-07T06:49:37.791Z,25.70
2019-05-07T06:50:36.684Z,24.20
2019-05-07T06:51:36.770Z,24.50
2019-05-07T06:52:36.689Z,23.60
2019-05-07T06:53:36.783Z,25.80
2019-05-07T06:54:36.653Z,25.00
2019-05-07T06:55:36.701Z,25.90
2019-05-07T06:56:36.616Z,25.30
2019-05-07T06:57:36.743Z,24.40
2019-05-07T06:58:36.626Z,22.50
2019-05-07T06:59:36.622Z,21.80
2019-05-07T07:00:36.586Z,24.00
2019-05-07T07:01:36.641Z,22.20
2019-05-07T07:02:36.562Z,24.40
2019-05-07T07:03:36.682Z,22.40
2019-05-07T07:04:36.538Z,23.80
2019-05-07T07:05:36.563Z,23.90
2019-05-07T07:06:36.509Z,21.60
2019-05-07T07:07:37.554Z,24.80
2019-05-07T07:08:36.538Z,22.80
2019-05-07T07:09:36.594Z,25.60
2019-05-07T07:10:36.483Z,24.10
2019-05-07T07:11:36.548Z,21.70
2019-05-07T07:12:36.460Z,22.10
2019-05-07T07:13:36.561Z,20.20
2019-05-07T07:14:36.428Z,21.70
2019-05-07T07:15:36.533Z,20.90
2019-05-07T07:16:36.416Z,21.00
2019-05-07T07:17:36.436Z,21.20
2019-05-07T07:18:48.335Z,22.40
2019-05-07T07:19:37.369Z,20.30
2019-05-07T07:20:36.460Z,22.90
2019-05-07T07:21:36.355Z,18.90
2019-05-07T07:22:36.371Z,21.30
2019-05-07T07:23:36.359Z,20.60
2019-05-07T07:24:36.399Z,21.10
2019-05-07T07:25:36.307Z,21.90
2019-05-07T07:26:36.403Z,19.00
2019-05-07T07:27:36.300Z,21.90
2019-05-07T07:28:36.350Z,20.00
2019-05-07T07:29:36.264Z,20.00
2019-05-07T07:30:36.333Z,22.40
2019-05-07T07:31:36.237Z,20.60
2019-05-07T07:32:36.342Z,22.40
2019-05-07T07:33:36.260Z,19.60
2019-05-07T07:34:36.257Z,18.50
2019-05-07T07:35:36.197Z,16.30
2019-05-07T07:36:36.262Z,19.90
2019-05-07T07:37:36.189Z,19.20
2019-05-07T07:38:36.329Z,19.60
2019-05-07T07:39:36.174Z,19.00
2019-05-07T07:40:36.188Z,20.60
2019-05-07T07:41:36.146Z,18.40
2019-05-07T07:42:36.200Z,16.80
2019-05-07T07:43:36.121Z,17.60
2019-05-07T07:44:36.262Z,18.10
2019-05-07T07:45:36.097Z,19.70
2019-05-07T07:46:36.127Z,18.90
2019-05-07T07:47:36.087Z,21.00
2019-05-07T07:48:36.147Z,16.90
2019-05-07T07:49:36.105Z,22.80
2019-05-07T07:50:36.156Z,18.70
2019-05-07T07:51:41.905Z,18.00
2019-05-07T07:52:37.011Z,21.90
2019-05-07T07:53:36.110Z,19.20
2019-05-07T07:54:36.017Z,18.20
2019-05-07T07:55:36.094Z,17.90
2019-05-07T07:56:49.142Z,18.90
2019-05-07T07:57:36.962Z,18.80
2019-05-07T07:58:35.962Z,16.40
2019-05-07T07:59:36.000Z,16.50
2019-05-07T08:00:35.933Z,17.70
2019-05-07T08:01:35.916Z,20.30
2019-05-07T08:02:35.906Z,18.20
2019-05-07T08:03:35.890Z,18.50
2019-05-07T08:04:35.988Z,17.50
2019-05-07T08:05:35.866Z,17.60
2019-05-07T08:06:35.958Z,17.70
2019-05-07T08:07:35.845Z,18.10
2019-05-07T08:08:35.872Z,17.30
2019-05-07T08:09:35.847Z,13.00
2019-05-07T08:10:35.887Z,18.90
2019-05-07T08:11:35.799Z,17.60
2019-05-07T08:12:35.901Z,16.00
2019-05-07T08:13:35.779Z,19.70
2019-05-07T08:14:35.848Z,12.70
2019-05-07T08:15:35.782Z,17.50
2019-05-07T08:16:35.830Z,16.20
2019-05-07T08:17:35.748Z,13.30
2019-05-07T08:18:35.859Z,12.60
2019-05-07T08:19:35.722Z,15.90
2019-05-07T08:20:35.780Z,15.50
2019-05-07T08:21:35.693Z,16.60
2019-05-07T08:22:35.762Z,15.70
2019-05-07T08:23:35.681Z,10.80
2019-05-07T08:24:35.777Z,14.50
2019-05-07T08:25:35.690Z,12.80
2019-05-07T08:26:35.686Z,16.00
2019-05-07T08:27:35.633Z,13.40
2019-05-07T08:28:35.701Z,12.10
2019-05-07T08:29:35.608Z,14.30
2019-05-07T08:30:35.754Z,14.50
2019-05-07T08:31:35.599Z,12.70
2019-05-07T08:32:35.629Z,13.40
2019-05-07T08:33:35.570Z,12.70
2019-05-07T08:34:35.645Z,13.70
2019-05-07T08:35:35.574Z,15.20
2019-05-07T08:36:35.554Z,12.30
2019-05-07T08:37:35.529Z,12.80
2019-05-07T08:38:35.570Z,13.30
2019-05-07T08:39:35.495Z,12.60
2019-05-07T08:40:35.617Z,11.00
2019-05-07T08:41:35.477Z,11.40
2019-05-07T08:42:35.496Z,11.10
2019-05-07T08:43:35.460Z,11.00
2019-05-07T08:44:35.503Z,10.30
2019-05-07T08:45:35.598Z,9.70
2019-05-07T08:46:35.533Z,8.10
2019-05-07T08:47:35.416Z,10.70
2019-05-07T08:48:35.430Z,12.10
2019-05-07T08:49:39.577Z,13.70
2019-05-07T08:50:35.476Z,12.70
2019-05-07T08:51:35.442Z,9.70
2019-05-07T08:52:35.463Z,10.00
2019-05-07T08:53:35.349Z,8.10
2019-05-07T08:54:35.369Z,10.70
2019-05-07T08:55:35.369Z,11.10
2019-05-07T08:56:35.387Z,11.30
2019-05-07T08:57:35.301Z,11.00
2019-05-07T08:58:35.398Z,11.50
2019-05-07T08:59:35.312Z,9.30
2019-05-07T09:00:35.335Z,12.50
2019-05-07T09:01:35.282Z,11.60
2019-05-07T09:02:35.324Z,10.20
2019-05-07T09:03:35.234Z,12.40
2019-05-07T09:04:35.344Z,9.70
2019-05-07T09:05:35.215Z,9.90
2019-05-07T09:06:35.310Z,10.90
2019-05-07T09:07:35.192Z,14.80
2019-05-07T09:08:35.262Z,10.50
2019-05-07T09:09:35.172Z,11.30
2019-05-07T09:10:35.277Z,10.10
2019-05-07T09:11:35.170Z,9.80
2019-05-07T09:12:35.209Z,12.80
2019-05-07T09:13:35.137Z,10.60
2019-05-07T09:14:35.214Z,10.50
2019-05-07T09:15:35.102Z,10.00
2019-05-07T09:16:35.156Z,11.30
2019-05-07T09:17:35.082Z,9.00
2019-05-07T09:18:35.133Z,12.10
2019-05-07T09:19:47.339Z,13.10
2019-05-07T09:20:36.046Z,10.70
2019-05-07T09:21:35.217Z,12.20
2019-05-07T09:22:35.030Z,7.80
2019-05-07T09:23:35.083Z,11.10
2019-05-07T09:24:35.017Z,10.70
2019-05-07T09:25:35.076Z,13.80
2019-05-07T09:26:35.020Z,8.20
2019-05-07T09:27:35.100Z,11.60
2019-05-07T09:28:34.959Z,10.70
2019-05-07T09:29:35.004Z,8.20
2019-05-07T09:30:34.948Z,8.90
2019-05-07T09:31:35.071Z,11.30
2019-05-07T09:32:34.943Z,11.40
2019-05-07T09:33:35.043Z,8.40
2019-05-07T09:34:34.913Z,10.80
2019-05-07T09:35:34.952Z,10.10
2019-05-07T09:36:34.873Z,8.80
2019-05-07T09:37:35.010Z,8.60
2019-05-07T09:38:34.846Z,11.10
2019-05-07T09:39:34.868Z,11.80
2019-05-07T09:40:34.833Z,9.50
2019-05-07T09:41:34.877Z,9.60
2019-05-07T09:42:34.835Z,8.90
2019-05-07T09:43:34.909Z,10.40
2019-05-07T09:44:34.785Z,10.90
2019-05-07T09:45:34.807Z,8.70
2019-05-07T09:46:34.770Z,10.30
2019-05-07T09:47:34.869Z,8.70
2019-05-07T09:48:34.743Z,9.10
2019-05-07T09:49:34.833Z,9.80
2019-05-07T09:50:34.739Z,8.20
2019-05-07T09:51:34.764Z,11.90
2019-05-07T09:52:34.739Z,9.90
2019-05-07T09:53:34.767Z,9.20
2019-05-07T09:54:34.677Z,9.60
2019-05-07T09:55:34.786Z,7.70
2019-05-07T09:56:34.670Z,9.30
2019-05-07T09:57:34.949Z,8.00
2019-05-07T09:58:38.783Z,9.70
2019-05-07T09:59:34.697Z,9.40
2019-05-07T10:00:34.609Z,8.30
2019-05-07T10:01:34.714Z,9.00
2019-05-07T10:02:34.603Z,9.20
2019-05-07T10:03:34.760Z,10.00
2019-05-07T10:04:34.568Z,8.70
2019-05-07T10:05:34.643Z,8.50
2019-05-07T10:06:34.546Z,6.60
2019-05-07T10:07:34.748Z,10.00
2019-05-07T10:08:34.551Z,9.10
2019-05-07T10:09:34.571Z,8.50
2019-05-07T10:10:34.502Z,8.30
2019-05-07T10:11:34.580Z,7.80
2019-05-07T10:12:34.482Z,11.10
2019-05-07T10:13:34.523Z,9.50
2019-05-07T10:14:34.493Z,8.20
2019-05-07T10:15:34.508Z,7.50
2019-05-07T10:16:34.453Z,7.10
2019-05-07T10:17:34.528Z,5.30
2019-05-07T10:18:34.452Z,7.30
2019-05-07T10:19:34.435Z,8.10
2019-05-07T10:20:34.400Z,8.10
2019-05-07T10:21:34.448Z,6.30
2019-05-07T10:22:34.388Z,7.90
2019-05-07T10:23:34.492Z,6.50
2019-05-07T10:24:34.354Z,8.50
2019-05-07T10:26:35.460Z,9.00
2019-05-07T10:27:34.385Z,9.00
2019-05-07T10:28:34.328Z,8.70
2019-05-07T10:29:34.431Z,8.10
2019-05-07T10:30:34.289Z,6.70
2019-05-07T10:31:34.308Z,7.00
2019-05-07T10:32:34.278Z,7.80
2019-05-07T10:33:34.359Z,8.40
2019-05-07T10:34:34.247Z,7.10
2019-05-07T10:35:34.338Z,7.60
2019-05-07T10:36:34.225Z,8.20
2019-05-07T10:37:34.256Z,5.40
2019-05-07T10:38:34.216Z,5.90
2019-05-07T10:40:35.291Z,8.60
2019-05-07T10:41:34.302Z,5.70
2019-05-07T10:42:34.141Z,6.70
2019-05-07T10:43:34.219Z,7.10
2019-05-07T10:44:34.140Z,8.40
2019-05-07T10:45:34.204Z,4.90
2019-05-07T10:46:34.109Z,6.10
2019-05-07T10:47:34.214Z,6.20
2019-05-07T10:48:34.118Z,4.40
2019-05-07T10:49:34.262Z,4.90
2019-05-07T10:50:39.012Z,4.90
2019-05-07T10:51:35.166Z,6.50
2019-05-07T10:52:34.045Z,5.70
2019-05-07T10:53:34.156Z,6.10
2019-05-07T10:54:34.044Z,6.90
2019-05-07T10:55:34.065Z,8.60
2019-05-07T10:56:34.000Z,6.80
2019-05-07T10:57:34.105Z,7.50
2019-05-07T10:58:33.971Z,7.40
2019-05-07T10:59:34.136Z,7.10
2019-05-07T11:00:33.958Z,8.70
2019-05-07T11:01:34.012Z,8.30
2019-05-07T11:02:33.957Z,8.80
2019-05-07T11:03:34.022Z,8.00
2019-05-07T11:04:42.165Z,7.50
2019-05-07T11:05:34.889Z,8.90
2019-05-07T11:06:33.934Z,8.10
2019-05-07T11:07:33.882Z,7.00
2019-05-07T11:08:33.948Z,8.90
2019-05-07T11:09:33.894Z,8.60
2019-05-07T11:10:33.858Z,7.90
2019-05-07T11:11:33.848Z,8.80
2019-05-07T11:12:33.924Z,8.80
2019-05-07T11:13:33.811Z,9.40
2019-05-07T11:14:33.924Z,9.50
2019-05-07T11:15:33.806Z,7.90
2019-05-07T11:16:33.786Z,7.90
2019-05-07T11:17:33.768Z,10.00
2019-05-07T11:18:33.821Z,9.20
2019-05-07T11:19:33.778Z,9.50
2019-05-07T11:20:46.442Z,9.20
2019-05-07T11:21:34.724Z,9.20
2019-05-07T11:22:33.749Z,10.50
2019-05-07T11:23:33.713Z,8.00
2019-05-07T11:24:33.758Z,8.80
2019-05-07T11:25:33.701Z,10.50
2019-05-07T11:26:33.770Z,10.00
2019-05-07T11:27:33.672Z,9.20
2019-05-07T11:28:33.689Z,10.10
2019-05-07T11:29:36.482Z,11.30
2019-05-07T11:30:33.743Z,9.80
2019-05-07T11:31:33.631Z,14.50
2019-05-07T11:32:33.719Z,11.20
2019-05-07T11:33:33.584Z,9.60
2019-05-07T11:34:33.624Z,8.20
2019-05-07T11:35:33.591Z,10.60
2019-05-07T11:36:34.476Z,9.40
2019-05-07T11:37:33.560Z,8.60
2019-05-07T11:38:33.650Z,10.90
2019-05-07T11:39:33.530Z,10.30
2019-05-07T11:40:34.848Z,10.70
2019-05-07T11:41:33.499Z,9.90
2019-05-07T11:42:33.585Z,9.90
2019-05-07T11:43:33.477Z,10.20
2019-05-07T11:44:33.590Z,12.30
2019-05-07T11:45:33.498Z,12.80
2019-05-07T11:46:33.518Z,11.90
2019-05-07T11:47:33.443Z,9.70
2019-05-07T11:48:36.334Z,10.30
2019-05-07T11:49:33.412Z,10.30
2019-05-07T11:50:33.425Z,11.10
2019-05-07T11:51:33.626Z,14.00
2019-05-07T11:52:35.767Z,14.10
2019-05-07T11:53:33.365Z,10.40
2019-05-07T11:54:33.452Z,12.20
2019-05-07T11:55:33.375Z,13.60
2019-05-07T11:56:33.373Z,11.60
2019-05-07T11:57:33.321Z,12.50
2019-05-07T11:58:33.380Z,12.40
2019-05-07T11:59:33.303Z,12.10
2019-05-07T12:00:33.435Z,12.80
2019-05-07T12:01:43.988Z,11.50
2019-05-07T12:02:34.283Z,12.50
2019-05-07T12:03:33.316Z,12.40
2019-05-07T12:04:33.253Z,12.80
2019-05-07T12:05:33.388Z,12.50
2019-05-07T12:06:33.264Z,11.60
2019-05-07T12:07:33.240Z,13.10
2019-05-07T12:08:42.501Z,11.60
2019-05-07T12:09:34.200Z,13.90
2019-05-07T12:10:33.304Z,16.20
2019-05-07T12:11:33.216Z,12.60
2019-05-07T12:12:33.271Z,11.30
2019-05-07T12:13:33.148Z,12.40
2019-05-07T12:14:34.947Z,14.60
2019-05-07T12:15:33.121Z,12.70
2019-05-07T12:16:33.233Z,13.40
2019-05-07T12:17:33.102Z,15.70
2019-05-07T12:18:33.148Z,11.60
2019-05-07T12:19:33.221Z,11.80
2019-05-07T12:20:33.125Z,13.60
2019-05-07T12:21:33.082Z,12.00
2019-05-07T12:23:34.195Z,14.70
2019-05-07T12:24:33.168Z,13.10
2019-05-07T12:25:33.004Z,12.90
2019-05-07T12:26:33.115Z,13.50
2019-05-07T12:27:32.987Z,12.50
2019-05-07T12:28:33.080Z,14.00
2019-05-07T12:29:32.985Z,14.50
2019-05-07T12:30:33.018Z,14.50
2019-05-07T12:31:33.650Z,14.80
2019-05-07T12:32:33.011Z,14.80
2019-05-07T12:33:32.947Z,12.70
2019-05-07T12:34:33.022Z,13.80
2019-05-07T12:35:32.912Z,12.60
2019-05-07T12:36:33.150Z,14.40
2019-05-07T12:37:32.901Z,13.30
2019-05-07T12:38:32.941Z,13.80
2019-05-07T12:39:32.860Z,13.20
2019-05-07T12:40:32.959Z,14.20
2019-05-07T12:41:34.062Z,13.60
2019-05-07T12:42:32.914Z,15.90
2019-05-07T12:43:32.818Z,15.50
2019-05-07T12:44:32.922Z,13.60
2019-05-07T12:45:32.781Z,16.20
2019-05-07T12:46:33.574Z,17.50
2019-05-07T12:47:32.815Z,17.80
2019-05-07T12:48:32.803Z,15.00
2019-05-07T12:49:32.746Z,12.80
2019-05-07T12:50:32.829Z,16.20
2019-05-07T12:51:37.131Z,18.20
2019-05-07T12:52:33.794Z,17.00
2019-05-07T12:53:32.703Z,15.60
2019-05-07T12:54:36.235Z,15.80
2019-05-07T12:55:32.684Z,16.50
2019-05-07T12:57:33.791Z,16.20
2019-05-07T12:58:32.912Z,15.10
2019-05-07T12:59:32.638Z,16.10
2019-05-07T13:00:32.652Z,17.30
2019-05-07T13:01:32.936Z,16.10
2019-05-07T13:02:40.611Z,14.90
2019-05-07T13:03:33.634Z,16.30
2019-05-07T13:04:32.696Z,16.80
2019-05-07T13:05:32.575Z,16.00
2019-05-07T13:06:32.702Z,16.90
2019-05-07T13:07:32.613Z,15.80